Terminal Aerodrome Forecast
Issued by NWS Portland, ME

Home | Current Version | Previous Version | Text Only | Print | Product List | Glossary On
Versions: 1 2 3 4 5 6 7 8 9 10 11 12 13 14 15 16 17
000
FTUS41 KGYX 272100 AAB
TAFPWM
TAF AMD
KPWM 272100Z 2721/2818 19009G16KT P6SM FEW035 BKN100
      TEMPO 2721/2722 5SM -TSRA BKN035CB
     FM280600 28004KT P6SM FEW100 SCT250
     FM281200 29005KT P6SM SKC=

USA.gov is the U.S. government's official web portal to all federal, state and local government web resources and services.